Aeroporto :
LOGIN :

Iscrizione | Disclaimer

   EN    FR    IT 

 










Sommario :    VFR   VFR Marginale   IFR   IFR Intensivo   IFR Molto Intensivo
Visibilità : 
Base nubi : 
>= 8 km
>= 3000ft
5 / 8 km
1000 / 3000 ft
1500m / 5 km
500 / 1000 ft
800 / 1500m
200 / 500 ft
< 800m
< 200 ft
Simboli :   Temporali  Nebbia  Neve Forte  Precipitazioni Forti  Vento > 20 kt
SIGMETs :   Varie  Temporali  Ghiacco  Turbolenza  Onda orograficha  Ceneri Vulcaniche






- Altitudine del aeroporto : 226 ft
- Codice IATA : BEX


EGUB - RAF Benson

ULTIMO METAR :
  • 022050Z 12005KT 9999 -RA FEW022 BKN080 14/12 Q1014 NOSIG RMK BLU BLU

METARs OBSOLETI :
  • 022020Z 12004KT 9999 -RA FEW022 BKN080 14/13 Q1014 NOSIG RMK BLU BLU
  • 021950Z 28001KT 9999 -RA FEW020 BKN070 14/13 Q1014 NOSIG RMK BLU BLU
  • 021920Z 21002KT 9999 -SHRA FEW018 OVC070 14/13 Q1014 TEMPO 7000 SHRA SCT018 RMK BLU TEMPO WHT
  • 021850Z 17005KT 9999 -SHRA FEW019 OVC070 15/13 Q1014 TEMPO 7000 SHRA SCT020 RMK BLU TEMPO WHT
  • 021820Z 12004KT 9999 -SHRA FEW022 OVC070 16/13 Q1014 TEMPO 6000 SHRA SCT022 RMK BLU TEMPO WHT

TAF TAF EGUB
Valido dal 02 a 21 ore il 03 a 03 ore UTC


021953Z 0221/0303 VRB02KT 9999 FEW022
PROB30
TEMPO 0222/0302 0200 FG BKN000
BECMG 0300/0303 4000 BR MIFG
PROB40 0302/0303 0200 FG VV///
ATIS : +44 1491-837766 (x7524)



MetMap, La meteo Aeronautica in un colpo d'occhio ! - Copyright ORBIFLY Dicembre 2007 - Disclaimer

ORBIFLY MET'MAP TEAM :

Programmazione e sviluppo : Alexandra Zaïnal
Concezione : Baudouin d'Aumeries
Aiuto per la programmazione : Marc-Olivier Méhu
Supporto tecnico e logistico : Manuel Goepfert
Aiuto per la traduzione : Arnaldo La Scala

Contatto : metmap@orbifly.com




FONTI E CREDITI :

   NOAA